sensor_id;sensor_type;location;lat;lon;timestamp;temperature;humidity
5786;DHT22;2919;48.630;9.000;2023-12-20T00:00:54;5.30;99.90
5786;DHT22;2919;48.630;9.000;2023-12-20T00:03:19;5.30;99.90
5786;DHT22;2919;48.630;9.000;2023-12-20T00:05:45;5.30;99.90
5786;DHT22;2919;48.630;9.000;2023-12-20T00:08:11;5.40;99.90
5786;DHT22;2919;48.630;9.000;2023-12-20T00:10:36;5.40;99.90
5786;DHT22;2919;48.630;9.000;2023-12-20T00:13:02;5.40;99.90
5786;DHT22;2919;48.630;9.000;2023-12-20T00:15:27;5.40;99.90
5786;DHT22;2919;48.630;9.000;2023-12-20T00:17:53;5.50;99.90
5786;DHT22;2919;48.630;9.000;2023-12-20T00:20:18;5.30;99.90
5786;DHT22;2919;48.630;9.000;2023-12-20T00:22:44;5.30;99.90
5786;DHT22;2919;48.630;9.000;2023-12-20T00:25:09;5.30;99.90
5786;DHT22;2919;48.630;9.000;2023-12-20T00:27:35;5.50;99.90
5786;DHT22;2919;48.630;9.000;2023-12-20T00:30:00;5.20;99.90
5786;DHT22;2919;48.630;9.000;2023-12-20T00:32:26;5.10;99.90
5786;DHT22;2919;48.630;9.000;2023-12-20T00:34:51;5.10;99.90
5786;DHT22;2919;48.630;9.000;2023-12-20T00:37:17;5.10;99.90
5786;DHT22;2919;48.630;9.000;2023-12-20T00:39:42;5.10;99.90
5786;DHT22;2919;48.630;9.000;2023-12-20T00:42:08;5.10;99.90
5786;DHT22;2919;48.630;9.000;2023-12-20T00:44:33;5.10;99.90
5786;DHT22;2919;48.630;9.000;2023-12-20T00:46:59;5.00;99.90
5786;DHT22;2919;48.630;9.000;2023-12-20T00:49:24;5.00;99.90
5786;DHT22;2919;48.630;9.000;2023-12-20T00:51:49;5.00;99.90
5786;DHT22;2919;48.630;9.000;2023-12-20T00:54:16;5.00;99.90
5786;DHT22;2919;48.630;9.000;2023-12-20T00:56:41;4.90;99.90
5786;DHT22;2919;48.630;9.000;2023-12-20T00:59:07;4.90;99.90
5786;DHT22;2919;48.630;9.000;2023-12-20T01:01:32;4.90;99.90
5786;DHT22;2919;48.630;9.000;2023-12-20T01:03:58;4.90;99.90
5786;DHT22;2919;48.630;9.000;2023-12-20T01:06:24;4.80;99.90
5786;DHT22;2919;48.630;9.000;2023-12-20T01:08:49;4.90;99.90
5786;DHT22;2919;48.630;9.000;2023-12-20T01:11:15;4.80;99.90
5786;DHT22;2919;48.630;9.000;2023-12-20T01:13:40;4.80;99.90
5786;DHT22;2919;48.630;9.000;2023-12-20T01:16:06;4.80;99.90
5786;DHT22;2919;48.630;9.000;2023-12-20T01:18:31;4.70;99.90
5786;DHT22;2919;48.630;9.000;2023-12-20T01:21:02;4.70;99.90
5786;DHT22;2919;48.630;9.000;2023-12-20T01:23:28;4.70;99.90
5786;DHT22;2919;48.630;9.000;2023-12-20T01:25:54;4.70;99.90
5786;DHT22;2919;48.630;9.000;2023-12-20T01:28:19;4.70;99.90
5786;DHT22;2919;48.630;9.000;2023-12-20T01:30:45;4.60;99.90
5786;DHT22;2919;48.630;9.000;2023-12-20T01:33:10;4.60;99.90
5786;DHT22;2919;48.630;9.000;2023-12-20T01:35:36;4.60;99.90
5786;DHT22;2919;48.630;9.000;2023-12-20T01:38:02;4.60;99.90
5786;DHT22;2919;48.630;9.000;2023-12-20T01:40:28;4.70;99.90
5786;DHT22;2919;48.630;9.000;2023-12-20T01:43:08;4.60;99.90
5786;DHT22;2919;48.630;9.000;2023-12-20T01:45:35;4.60;99.90
5786;DHT22;2919;48.630;9.000;2023-12-20T01:48:01;4.60;99.90
5786;DHT22;2919;48.630;9.000;2023-12-20T01:50:28;4.60;99.90
5786;DHT22;2919;48.630;9.000;2023-12-20T01:52:55;4.60;99.90
5786;DHT22;2919;48.630;9.000;2023-12-20T01:55:23;4.60;99.90
5786;DHT22;2919;48.630;9.000;2023-12-20T01:57:49;4.60;99.90
5786;DHT22;2919;48.630;9.000;2023-12-20T02:00:15;4.60;99.90
5786;DHT22;2919;48.630;9.000;2023-12-20T02:02:42;4.50;99.90
5786;DHT22;2919;48.630;9.000;2023-12-20T02:05:09;4.60;99.90
5786;DHT22;2919;48.630;9.000;2023-12-20T02:07:35;4.70;99.90
5786;DHT22;2919;48.630;9.000;2023-12-20T02:10:01;4.70;99.90
5786;DHT22;2919;48.630;9.000;2023-12-20T02:12:26;4.70;99.90
5786;DHT22;2919;48.630;9.000;2023-12-20T02:14:52;4.70;99.90
5786;DHT22;2919;48.630;9.000;2023-12-20T02:17:19;4.70;99.90
5786;DHT22;2919;48.630;9.000;2023-12-20T02:19:45;4.70;99.90
5786;DHT22;2919;48.630;9.000;2023-12-20T02:22:11;4.70;99.90
5786;DHT22;2919;48.630;9.000;2023-12-20T02:24:37;4.70;99.90
5786;DHT22;2919;48.630;9.000;2023-12-20T02:27:03;4.60;99.90
5786;DHT22;2919;48.630;9.000;2023-12-20T02:29:30;4.60;99.90
5786;DHT22;2919;48.630;9.000;2023-12-20T02:31:56;4.60;99.90
5786;DHT22;2919;48.630;9.000;2023-12-20T02:34:21;4.60;99.90
5786;DHT22;2919;48.630;9.000;2023-12-20T02:36:47;4.60;99.90
5786;DHT22;2919;48.630;9.000;2023-12-20T02:39:12;4.60;99.90
5786;DHT22;2919;48.630;9.000;2023-12-20T02:41:38;4.60;99.90
5786;DHT22;2919;48.630;9.000;2023-12-20T02:44:04;4.60;99.90
5786;DHT22;2919;48.630;9.000;2023-12-20T02:46:29;4.60;99.90
5786;DHT22;2919;48.630;9.000;2023-12-20T02:48:54;4.60;99.90
5786;DHT22;2919;48.630;9.000;2023-12-20T02:51:20;4.60;99.90
5786;DHT22;2919;48.630;9.000;2023-12-20T02:53:45;4.60;99.90
5786;DHT22;2919;48.630;9.000;2023-12-20T02:56:11;4.60;99.90
5786;DHT22;2919;48.630;9.000;2023-12-20T02:58:36;4.50;99.90
5786;DHT22;2919;48.630;9.000;2023-12-20T03:01:02;4.50;99.90
5786;DHT22;2919;48.630;9.000;2023-12-20T03:03:28;4.50;99.90
5786;DHT22;2919;48.630;9.000;2023-12-20T03:05:53;4.60;99.90
5786;DHT22;2919;48.630;9.000;2023-12-20T03:08:19;4.60;99.90
5786;DHT22;2919;48.630;9.000;2023-12-20T03:10:44;4.60;99.90
5786;DHT22;2919;48.630;9.000;2023-12-20T03:13:10;4.60;99.90
5786;DHT22;2919;48.630;9.000;2023-12-20T03:15:35;4.90;99.90
5786;DHT22;2919;48.630;9.000;2023-12-20T03:18:02;4.90;99.90
5786;DHT22;2919;48.630;9.000;2023-12-20T03:20:28;4.60;99.90
5786;DHT22;2919;48.630;9.000;2023-12-20T03:22:53;4.60;99.90
5786;DHT22;2919;48.630;9.000;2023-12-20T03:25:19;4.70;99.90
5786;DHT22;2919;48.630;9.000;2023-12-20T03:27:44;4.60;99.90
5786;DHT22;2919;48.630;9.000;2023-12-20T03:30:10;4.60;99.90
5786;DHT22;2919;48.630;9.000;2023-12-20T03:32:36;4.60;99.90
5786;DHT22;2919;48.630;9.000;2023-12-20T03:35:02;4.60;99.90
5786;DHT22;2919;48.630;9.000;2023-12-20T03:37:28;4.60;99.90
5786;DHT22;2919;48.630;9.000;2023-12-20T03:39:54;4.60;99.90
5786;DHT22;2919;48.630;9.000;2023-12-20T03:42:19;4.60;99.90
5786;DHT22;2919;48.630;9.000;2023-12-20T03:44:44;4.60;99.90
5786;DHT22;2919;48.630;9.000;2023-12-20T03:47:10;4.60;99.90
5786;DHT22;2919;48.630;9.000;2023-12-20T03:49:35;4.50;99.90
5786;DHT22;2919;48.630;9.000;2023-12-20T03:52:02;4.50;99.90
5786;DHT22;2919;48.630;9.000;2023-12-20T03:54:28;4.50;99.90
5786;DHT22;2919;48.630;9.000;2023-12-20T03:56:54;4.50;99.90
5786;DHT22;2919;48.630;9.000;2023-12-20T03:59:20;4.50;99.90
5786;DHT22;2919;48.630;9.000;2023-12-20T04:01:45;4.50;99.90
5786;DHT22;2919;48.630;9.000;2023-12-20T04:04:11;4.50;99.90
5786;DHT22;2919;48.630;9.000;2023-12-20T04:06:37;4.50;99.90
5786;DHT22;2919;48.630;9.000;2023-12-20T04:09:03;4.40;99.90
5786;DHT22;2919;48.630;9.000;2023-12-20T04:11:28;4.40;99.90
5786;DHT22;2919;48.630;9.000;2023-12-20T04:13:54;4.40;99.90
5786;DHT22;2919;48.630;9.000;2023-12-20T04:16:19;4.40;99.90
5786;DHT22;2919;48.630;9.000;2023-12-20T04:18:45;4.30;99.90
5786;DHT22;2919;48.630;9.000;2023-12-20T04:21:10;4.30;99.90
5786;DHT22;2919;48.630;9.000;2023-12-20T04:23:36;4.30;99.90
5786;DHT22;2919;48.630;9.000;2023-12-20T04:26:01;4.30;99.90
5786;DHT22;2919;48.630;9.000;2023-12-20T04:28:27;4.30;99.90
5786;DHT22;2919;48.630;9.000;2023-12-20T04:30:55;4.20;99.90
5786;DHT22;2919;48.630;9.000;2023-12-20T04:33:21;4.20;99.90
5786;DHT22;2919;48.630;9.000;2023-12-20T04:35:46;4.20;99.90
5786;DHT22;2919;48.630;9.000;2023-12-20T04:38:12;4.20;99.90
5786;DHT22;2919;48.630;9.000;2023-12-20T04:40:37;4.20;99.90
5786;DHT22;2919;48.630;9.000;2023-12-20T04:43:04;4.20;99.90
5786;DHT22;2919;48.630;9.000;2023-12-20T04:45:29;4.20;99.90
5786;DHT22;2919;48.630;9.000;2023-12-20T04:47:55;4.20;99.90
5786;DHT22;2919;48.630;9.000;2023-12-20T04:50:21;4.20;99.90
5786;DHT22;2919;48.630;9.000;2023-12-20T04:52:46;4.30;99.90
5786;DHT22;2919;48.630;9.000;2023-12-20T04:55:12;4.20;99.90
5786;DHT22;2919;48.630;9.000;2023-12-20T04:57:38;4.20;99.90
5786;DHT22;2919;48.630;9.000;2023-12-20T05:00:03;4.10;99.90
5786;DHT22;2919;48.630;9.000;2023-12-20T05:02:30;4.10;99.90
5786;DHT22;2919;48.630;9.000;2023-12-20T05:04:55;4.10;99.90
5786;DHT22;2919;48.630;9.000;2023-12-20T05:07:20;4.10;99.90
5786;DHT22;2919;48.630;9.000;2023-12-20T05:09:46;4.10;99.90
5786;DHT22;2919;48.630;9.000;2023-12-20T05:12:12;4.10;99.90
5786;DHT22;2919;48.630;9.000;2023-12-20T05:14:37;4.10;99.90
5786;DHT22;2919;48.630;9.000;2023-12-20T05:17:03;4.10;99.90
5786;DHT22;2919;48.630;9.000;2023-12-20T05:19:29;4.10;99.90
5786;DHT22;2919;48.630;9.000;2023-12-20T05:21:54;4.10;99.90
5786;DHT22;2919;48.630;9.000;2023-12-20T05:24:20;4.10;99.90
5786;DHT22;2919;48.630;9.000;2023-12-20T05:26:45;4.10;99.90
5786;DHT22;2919;48.630;9.000;2023-12-20T05:29:11;4.10;99.90
5786;DHT22;2919;48.630;9.000;2023-12-20T05:31:37;4.10;99.90
5786;DHT22;2919;48.630;9.000;2023-12-20T05:34:02;4.10;99.90
5786;DHT22;2919;48.630;9.000;2023-12-20T05:36:27;4.20;99.90
5786;DHT22;2919;48.630;9.000;2023-12-20T05:38:53;4.20;99.90
5786;DHT22;2919;48.630;9.000;2023-12-20T05:41:19;4.20;99.90
5786;DHT22;2919;48.630;9.000;2023-12-20T05:43:44;4.20;99.90
5786;DHT22;2919;48.630;9.000;2023-12-20T05:46:10;4.20;99.90
5786;DHT22;2919;48.630;9.000;2023-12-20T05:48:37;4.20;99.90
5786;DHT22;2919;48.630;9.000;2023-12-20T05:51:03;4.20;99.90
5786;DHT22;2919;48.630;9.000;2023-12-20T05:53:28;4.20;99.90
5786;DHT22;2919;48.630;9.000;2023-12-20T05:55:54;4.20;99.90
5786;DHT22;2919;48.630;9.000;2023-12-20T05:58:19;4.20;99.90
5786;DHT22;2919;48.630;9.000;2023-12-20T06:00:45;4.10;99.90
5786;DHT22;2919;48.630;9.000;2023-12-20T06:03:10;4.20;99.90
5786;DHT22;2919;48.630;9.000;2023-12-20T06:05:36;4.20;99.90
5786;DHT22;2919;48.630;9.000;2023-12-20T06:08:01;4.20;99.90
5786;DHT22;2919;48.630;9.000;2023-12-20T06:10:28;4.10;99.90
5786;DHT22;2919;48.630;9.000;2023-12-20T06:12:54;4.10;99.90
5786;DHT22;2919;48.630;9.000;2023-12-20T06:15:20;4.10;99.90
5786;DHT22;2919;48.630;9.000;2023-12-20T06:17:46;4.20;99.90
5786;DHT22;2919;48.630;9.000;2023-12-20T06:20:12;4.10;99.90
5786;DHT22;2919;48.630;9.000;2023-12-20T06:22:38;4.10;99.90
5786;DHT22;2919;48.630;9.000;2023-12-20T06:25:04;4.10;99.90
5786;DHT22;2919;48.630;9.000;2023-12-20T06:27:30;4.10;99.90
5786;DHT22;2919;48.630;9.000;2023-12-20T06:29:57;4.10;99.90
5786;DHT22;2919;48.630;9.000;2023-12-20T06:32:23;4.10;99.90
5786;DHT22;2919;48.630;9.000;2023-12-20T06:34:49;4.10;99.90
5786;DHT22;2919;48.630;9.000;2023-12-20T06:37:15;4.10;99.90
5786;DHT22;2919;48.630;9.000;2023-12-20T06:39:40;4.10;99.90
5786;DHT22;2919;48.630;9.000;2023-12-20T06:42:06;4.10;99.90
5786;DHT22;2919;48.630;9.000;2023-12-20T06:44:32;4.10;99.90
5786;DHT22;2919;48.630;9.000;2023-12-20T06:46:57;4.10;99.90
5786;DHT22;2919;48.630;9.000;2023-12-20T06:49:23;4.00;99.90
5786;DHT22;2919;48.630;9.000;2023-12-20T06:51:49;4.10;99.90
5786;DHT22;2919;48.630;9.000;2023-12-20T06:54:14;4.10;99.90
5786;DHT22;2919;48.630;9.000;2023-12-20T06:56:40;4.20;99.90
5786;DHT22;2919;48.630;9.000;2023-12-20T06:59:06;4.10;99.90
5786;DHT22;2919;48.630;9.000;2023-12-20T07:01:32;4.20;99.90
5786;DHT22;2919;48.630;9.000;2023-12-20T07:03:57;4.10;99.90
5786;DHT22;2919;48.630;9.000;2023-12-20T07:06:23;4.10;99.90
5786;DHT22;2919;48.630;9.000;2023-12-20T07:08:49;4.10;99.90
5786;DHT22;2919;48.630;9.000;2023-12-20T07:11:14;4.10;99.90
5786;DHT22;2919;48.630;9.000;2023-12-20T07:13:40;4.20;99.90
5786;DHT22;2919;48.630;9.000;2023-12-20T07:16:05;4.70;99.90
5786;DHT22;2919;48.630;9.000;2023-12-20T07:18:31;4.20;99.90
5786;DHT22;2919;48.630;9.000;2023-12-20T07:20:57;4.10;99.90
5786;DHT22;2919;48.630;9.000;2023-12-20T07:23:22;4.10;99.90
5786;DHT22;2919;48.630;9.000;2023-12-20T07:25:47;4.20;99.90
5786;DHT22;2919;48.630;9.000;2023-12-20T07:28:13;4.20;99.90
5786;DHT22;2919;48.630;9.000;2023-12-20T07:30:39;4.20;99.90
5786;DHT22;2919;48.630;9.000;2023-12-20T07:33:04;4.30;99.90
5786;DHT22;2919;48.630;9.000;2023-12-20T07:35:30;4.30;99.90
5786;DHT22;2919;48.630;9.000;2023-12-20T07:37:56;4.30;99.90
5786;DHT22;2919;48.630;9.000;2023-12-20T07:40:21;5.20;99.90
5786;DHT22;2919;48.630;9.000;2023-12-20T07:42:47;4.70;99.90
5786;DHT22;2919;48.630;9.000;2023-12-20T07:45:12;4.40;99.90
5786;DHT22;2919;48.630;9.000;2023-12-20T07:47:38;5.00;99.90
5786;DHT22;2919;48.630;9.000;2023-12-20T07:50:03;4.40;99.90
5786;DHT22;2919;48.630;9.000;2023-12-20T07:52:29;4.40;99.90
5786;DHT22;2919;48.630;9.000;2023-12-20T07:54:55;4.50;99.90
5786;DHT22;2919;48.630;9.000;2023-12-20T07:57:21;4.40;99.90
5786;DHT22;2919;48.630;9.000;2023-12-20T07:59:46;5.00;99.90
5786;DHT22;2919;48.630;9.000;2023-12-20T08:02:12;4.40;99.90
5786;DHT22;2919;48.630;9.000;2023-12-20T08:04:38;4.50;99.90
5786;DHT22;2919;48.630;9.000;2023-12-20T08:07:04;4.50;99.90
5786;DHT22;2919;48.630;9.000;2023-12-20T08:09:29;4.50;99.90
5786;DHT22;2919;48.630;9.000;2023-12-20T08:11:55;4.50;99.90
5786;DHT22;2919;48.630;9.000;2023-12-20T08:14:20;4.50;99.90
5786;DHT22;2919;48.630;9.000;2023-12-20T08:16:46;4.50;99.90
5786;DHT22;2919;48.630;9.000;2023-12-20T08:19:11;4.50;99.90
5786;DHT22;2919;48.630;9.000;2023-12-20T08:21:37;4.50;99.90
5786;DHT22;2919;48.630;9.000;2023-12-20T08:24:03;4.50;99.90
5786;DHT22;2919;48.630;9.000;2023-12-20T08:26:28;4.50;99.90
5786;DHT22;2919;48.630;9.000;2023-12-20T08:28:54;4.50;99.90
5786;DHT22;2919;48.630;9.000;2023-12-20T08:31:19;4.60;99.90
5786;DHT22;2919;48.630;9.000;2023-12-20T08:33:47;4.60;99.90
5786;DHT22;2919;48.630;9.000;2023-12-20T08:36:13;4.70;99.90
5786;DHT22;2919;48.630;9.000;2023-12-20T08:38:39;4.60;99.90
5786;DHT22;2919;48.630;9.000;2023-12-20T08:41:06;4.60;99.90
5786;DHT22;2919;48.630;9.000;2023-12-20T08:43:32;4.60;99.90
5786;DHT22;2919;48.630;9.000;2023-12-20T08:45:57;4.50;99.90
5786;DHT22;2919;48.630;9.000;2023-12-20T08:48:23;4.50;99.90
5786;DHT22;2919;48.630;9.000;2023-12-20T08:50:48;4.40;99.90
5786;DHT22;2919;48.630;9.000;2023-12-20T08:53:15;4.40;99.90
5786;DHT22;2919;48.630;9.000;2023-12-20T08:55:42;4.30;99.90
5786;DHT22;2919;48.630;9.000;2023-12-20T08:58:07;4.30;99.90
5786;DHT22;2919;48.630;9.000;2023-12-20T09:00:34;4.30;99.90
5786;DHT22;2919;48.630;9.000;2023-12-20T09:02:59;4.20;99.90
5786;DHT22;2919;48.630;9.000;2023-12-20T09:05:25;4.30;99.90
5786;DHT22;2919;48.630;9.000;2023-12-20T09:07:50;4.30;99.90
5786;DHT22;2919;48.630;9.000;2023-12-20T09:10:16;4.30;99.90
5786;DHT22;2919;48.630;9.000;2023-12-20T09:12:56;4.20;99.90
5786;DHT22;2919;48.630;9.000;2023-12-20T09:15:26;4.10;99.90
5786;DHT22;2919;48.630;9.000;2023-12-20T09:17:52;4.10;99.90
5786;DHT22;2919;48.630;9.000;2023-12-20T09:20:17;4.10;99.90
5786;DHT22;2919;48.630;9.000;2023-12-20T09:22:43;4.10;99.90
5786;DHT22;2919;48.630;9.000;2023-12-20T09:25:10;4.20;99.90
5786;DHT22;2919;48.630;9.000;2023-12-20T09:27:36;4.10;99.90
5786;DHT22;2919;48.630;9.000;2023-12-20T09:30:02;4.10;99.90
5786;DHT22;2919;48.630;9.000;2023-12-20T09:32:29;4.10;99.90
5786;DHT22;2919;48.630;9.000;2023-12-20T09:34:55;4.10;99.90
5786;DHT22;2919;48.630;9.000;2023-12-20T09:37:20;4.30;99.90
5786;DHT22;2919;48.630;9.000;2023-12-20T09:39:46;4.30;99.90
5786;DHT22;2919;48.630;9.000;2023-12-20T09:42:12;4.40;99.90
5786;DHT22;2919;48.630;9.000;2023-12-20T09:44:40;4.50;99.90
5786;DHT22;2919;48.630;9.000;2023-12-20T09:47:08;4.70;99.90
5786;DHT22;2919;48.630;9.000;2023-12-20T09:49:34;4.90;99.90
5786;DHT22;2919;48.630;9.000;2023-12-20T09:52:01;5.00;99.90
5786;DHT22;2919;48.630;9.000;2023-12-20T09:54:28;5.00;99.90
5786;DHT22;2919;48.630;9.000;2023-12-20T09:56:54;5.00;99.90
5786;DHT22;2919;48.630;9.000;2023-12-20T09:59:19;5.00;99.90
5786;DHT22;2919;48.630;9.000;2023-12-20T10:01:45;5.00;99.90
5786;DHT22;2919;48.630;9.000;2023-12-20T10:04:12;4.90;99.90
5786;DHT22;2919;48.630;9.000;2023-12-20T10:06:42;4.90;99.90
5786;DHT22;2919;48.630;9.000;2023-12-20T10:09:08;4.80;99.90
5786;DHT22;2919;48.630;9.000;2023-12-20T10:11:38;4.70;99.90
5786;DHT22;2919;48.630;9.000;2023-12-20T10:14:04;4.60;99.90
5786;DHT22;2919;48.630;9.000;2023-12-20T10:16:31;4.60;99.90
5786;DHT22;2919;48.630;9.000;2023-12-20T10:18:57;4.60;99.90
5786;DHT22;2919;48.630;9.000;2023-12-20T10:21:23;4.70;99.90
5786;DHT22;2919;48.630;9.000;2023-12-20T10:23:54;4.80;99.90
5786;DHT22;2919;48.630;9.000;2023-12-20T10:26:21;4.80;99.90
5786;DHT22;2919;48.630;9.000;2023-12-20T10:28:51;4.90;99.90
5786;DHT22;2919;48.630;9.000;2023-12-20T10:31:30;5.00;99.90
5786;DHT22;2919;48.630;9.000;2023-12-20T10:34:01;5.10;99.90
5786;DHT22;2919;48.630;9.000;2023-12-20T10:36:29;5.10;99.90
5786;DHT22;2919;48.630;9.000;2023-12-20T10:38:55;5.20;99.90
5786;DHT22;2919;48.630;9.000;2023-12-20T10:41:27;5.40;99.90
5786;DHT22;2919;48.630;9.000;2023-12-20T10:44:01;5.10;99.90
5786;DHT22;2919;48.630;9.000;2023-12-20T10:46:28;5.00;99.90
5786;DHT22;2919;48.630;9.000;2023-12-20T10:48:55;5.00;99.90
5786;DHT22;2919;48.630;9.000;2023-12-20T10:51:21;5.00;99.90
5786;DHT22;2919;48.630;9.000;2023-12-20T10:53:48;5.00;99.90
5786;DHT22;2919;48.630;9.000;2023-12-20T10:56:17;5.00;99.90
5786;DHT22;2919;48.630;9.000;2023-12-20T10:58:43;4.90;99.90
5786;DHT22;2919;48.630;9.000;2023-12-20T11:01:16;4.90;99.90
5786;DHT22;2919;48.630;9.000;2023-12-20T11:03:49;5.00;99.90
5786;DHT22;2919;48.630;9.000;2023-12-20T11:06:40;5.00;99.90
5786;DHT22;2919;48.630;9.000;2023-12-20T11:09:31;4.80;99.90
5786;DHT22;2919;48.630;9.000;2023-12-20T11:12:18;4.90;99.90
5786;DHT22;2919;48.630;9.000;2023-12-20T11:14:50;4.80;99.90
5786;DHT22;2919;48.630;9.000;2023-12-20T11:17:16;4.80;99.90
5786;DHT22;2919;48.630;9.000;2023-12-20T11:22:20;5.00;99.90
5786;DHT22;2919;48.630;9.000;2023-12-20T11:24:47;5.10;99.90
5786;DHT22;2919;48.630;9.000;2023-12-20T11:27:13;5.10;99.90
5786;DHT22;2919;48.630;9.000;2023-12-20T11:29:39;5.20;99.90
5786;DHT22;2919;48.630;9.000;2023-12-20T11:34:56;5.10;99.90
5786;DHT22;2919;48.630;9.000;2023-12-20T11:37:29;5.00;99.90
5786;DHT22;2919;48.630;9.000;2023-12-20T11:39:56;5.10;99.90
5786;DHT22;2919;48.630;9.000;2023-12-20T11:42:22;5.00;99.90
5786;DHT22;2919;48.630;9.000;2023-12-20T11:44:47;5.00;99.90
5786;DHT22;2919;48.630;9.000;2023-12-20T11:47:13;5.00;99.90
5786;DHT22;2919;48.630;9.000;2023-12-20T11:49:39;4.90;99.90
5786;DHT22;2919;48.630;9.000;2023-12-20T11:52:05;4.90;99.90
5786;DHT22;2919;48.630;9.000;2023-12-20T11:54:31;5.00;99.90
5786;DHT22;2919;48.630;9.000;2023-12-20T11:56:56;4.90;99.90
5786;DHT22;2919;48.630;9.000;2023-12-20T11:59:22;5.00;99.90
5786;DHT22;2919;48.630;9.000;2023-12-20T12:01:49;4.90;99.90
5786;DHT22;2919;48.630;9.000;2023-12-20T12:04:15;4.90;99.90
5786;DHT22;2919;48.630;9.000;2023-12-20T12:06:43;4.90;99.90
5786;DHT22;2919;48.630;9.000;2023-12-20T12:09:08;4.80;99.90
5786;DHT22;2919;48.630;9.000;2023-12-20T12:11:34;4.80;99.90
5786;DHT22;2919;48.630;9.000;2023-12-20T12:14:00;4.70;99.90
5786;DHT22;2919;48.630;9.000;2023-12-20T12:16:26;4.70;99.90
5786;DHT22;2919;48.630;9.000;2023-12-20T12:18:57;4.70;99.90
5786;DHT22;2919;48.630;9.000;2023-12-20T12:21:24;4.70;99.90
5786;DHT22;2919;48.630;9.000;2023-12-20T12:23:49;4.80;99.90
5786;DHT22;2919;48.630;9.000;2023-12-20T12:26:15;4.80;99.90
5786;DHT22;2919;48.630;9.000;2023-12-20T12:28:41;4.90;99.90
5786;DHT22;2919;48.630;9.000;2023-12-20T12:31:08;4.90;99.90
5786;DHT22;2919;48.630;9.000;2023-12-20T12:33:34;4.90;99.90
5786;DHT22;2919;48.630;9.000;2023-12-20T12:36:00;4.90;99.90
5786;DHT22;2919;48.630;9.000;2023-12-20T12:38:26;4.90;99.90
5786;DHT22;2919;48.630;9.000;2023-12-20T12:40:54;5.00;99.90
5786;DHT22;2919;48.630;9.000;2023-12-20T12:43:19;5.00;99.90
5786;DHT22;2919;48.630;9.000;2023-12-20T12:45:45;5.00;99.90
5786;DHT22;2919;48.630;9.000;2023-12-20T12:48:11;4.90;99.90
5786;DHT22;2919;48.630;9.000;2023-12-20T12:50:36;5.00;99.90
5786;DHT22;2919;48.630;9.000;2023-12-20T12:53:02;4.90;99.90
5786;DHT22;2919;48.630;9.000;2023-12-20T12:55:28;5.00;99.90
5786;DHT22;2919;48.630;9.000;2023-12-20T12:57:53;5.10;99.90
5786;DHT22;2919;48.630;9.000;2023-12-20T13:00:19;5.20;99.90
5786;DHT22;2919;48.630;9.000;2023-12-20T13:02:45;5.40;99.90
5786;DHT22;2919;48.630;9.000;2023-12-20T13:05:10;5.50;99.90
5786;DHT22;2919;48.630;9.000;2023-12-20T13:07:36;5.40;99.90
5786;DHT22;2919;48.630;9.000;2023-12-20T13:10:03;5.40;99.90
5786;DHT22;2919;48.630;9.000;2023-12-20T13:12:29;5.30;99.90
5786;DHT22;2919;48.630;9.000;2023-12-20T13:14:55;5.40;99.90
5786;DHT22;2919;48.630;9.000;2023-12-20T13:17:20;5.40;99.90
5786;DHT22;2919;48.630;9.000;2023-12-20T13:19:46;5.30;99.90
5786;DHT22;2919;48.630;9.000;2023-12-20T13:22:11;5.40;99.90
5786;DHT22;2919;48.630;9.000;2023-12-20T13:24:37;5.30;99.90
5786;DHT22;2919;48.630;9.000;2023-12-20T13:27:02;5.30;99.90
5786;DHT22;2919;48.630;9.000;2023-12-20T13:29:28;5.30;99.90
5786;DHT22;2919;48.630;9.000;2023-12-20T13:31:53;5.30;99.90
5786;DHT22;2919;48.630;9.000;2023-12-20T13:34:19;5.30;99.90
5786;DHT22;2919;48.630;9.000;2023-12-20T13:36:45;5.20;99.90
5786;DHT22;2919;48.630;9.000;2023-12-20T13:39:13;5.30;99.90
5786;DHT22;2919;48.630;9.000;2023-12-20T13:41:39;6.20;99.90
5786;DHT22;2919;48.630;9.000;2023-12-20T13:44:04;5.30;99.90
5786;DHT22;2919;48.630;9.000;2023-12-20T13:46:30;5.10;99.90
5786;DHT22;2919;48.630;9.000;2023-12-20T13:48:56;5.10;99.90
5786;DHT22;2919;48.630;9.000;2023-12-20T13:51:22;5.10;99.90
5786;DHT22;2919;48.630;9.000;2023-12-20T13:53:48;5.10;99.90
5786;DHT22;2919;48.630;9.000;2023-12-20T13:56:14;5.00;99.90
5786;DHT22;2919;48.630;9.000;2023-12-20T13:58:40;5.00;99.90
5786;DHT22;2919;48.630;9.000;2023-12-20T14:01:07;5.00;99.90
5786;DHT22;2919;48.630;9.000;2023-12-20T14:03:32;5.00;99.90
5786;DHT22;2919;48.630;9.000;2023-12-20T14:05:58;4.90;99.90
5786;DHT22;2919;48.630;9.000;2023-12-20T14:08:24;4.90;99.90
5786;DHT22;2919;48.630;9.000;2023-12-20T14:10:49;4.90;99.90
5786;DHT22;2919;48.630;9.000;2023-12-20T14:13:15;4.90;99.90
5786;DHT22;2919;48.630;9.000;2023-12-20T14:15:41;4.80;99.90
5786;DHT22;2919;48.630;9.000;2023-12-20T14:18:06;4.70;99.90
5786;DHT22;2919;48.630;9.000;2023-12-20T14:20:33;4.80;99.90
5786;DHT22;2919;48.630;9.000;2023-12-20T14:23:04;4.70;99.90
5786;DHT22;2919;48.630;9.000;2023-12-20T14:25:29;4.60;99.90
5786;DHT22;2919;48.630;9.000;2023-12-20T14:27:56;4.50;99.90
5786;DHT22;2919;48.630;9.000;2023-12-20T14:30:22;4.50;99.90
5786;DHT22;2919;48.630;9.000;2023-12-20T14:32:47;4.40;99.90
5786;DHT22;2919;48.630;9.000;2023-12-20T14:35:14;4.40;99.90
5786;DHT22;2919;48.630;9.000;2023-12-20T14:37:39;4.30;99.90
5786;DHT22;2919;48.630;9.000;2023-12-20T14:40:06;4.20;99.90
5786;DHT22;2919;48.630;9.000;2023-12-20T14:42:35;4.10;99.90
5786;DHT22;2919;48.630;9.000;2023-12-20T14:45:01;4.00;99.90
5786;DHT22;2919;48.630;9.000;2023-12-20T14:47:27;4.00;99.90
5786;DHT22;2919;48.630;9.000;2023-12-20T14:49:52;3.90;99.90
5786;DHT22;2919;48.630;9.000;2023-12-20T14:52:18;4.00;99.90
5786;DHT22;2919;48.630;9.000;2023-12-20T14:54:44;3.90;99.90
5786;DHT22;2919;48.630;9.000;2023-12-20T14:57:10;3.80;99.90
5786;DHT22;2919;48.630;9.000;2023-12-20T14:59:35;3.80;99.90
5786;DHT22;2919;48.630;9.000;2023-12-20T15:02:01;3.80;99.90
5786;DHT22;2919;48.630;9.000;2023-12-20T15:04:33;3.80;99.90
5786;DHT22;2919;48.630;9.000;2023-12-20T15:06:58;3.80;99.90
5786;DHT22;2919;48.630;9.000;2023-12-20T15:09:24;3.80;99.90
5786;DHT22;2919;48.630;9.000;2023-12-20T15:11:50;3.80;99.90
5786;DHT22;2919;48.630;9.000;2023-12-20T15:14:15;3.90;99.90
5786;DHT22;2919;48.630;9.000;2023-12-20T15:16:45;3.80;99.90
5786;DHT22;2919;48.630;9.000;2023-12-20T15:19:11;3.70;99.90
5786;DHT22;2919;48.630;9.000;2023-12-20T15:21:37;3.70;99.90
5786;DHT22;2919;48.630;9.000;2023-12-20T15:24:07;3.70;99.90
5786;DHT22;2919;48.630;9.000;2023-12-20T15:26:39;3.70;99.90
5786;DHT22;2919;48.630;9.000;2023-12-20T15:29:05;3.70;99.90
5786;DHT22;2919;48.630;9.000;2023-12-20T15:31:31;3.70;99.90
5786;DHT22;2919;48.630;9.000;2023-12-20T15:33:58;3.70;99.90
5786;DHT22;2919;48.630;9.000;2023-12-20T15:36:24;3.60;99.90
5786;DHT22;2919;48.630;9.000;2023-12-20T15:38:49;3.70;99.90
5786;DHT22;2919;48.630;9.000;2023-12-20T15:41:21;3.60;99.90
5786;DHT22;2919;48.630;9.000;2023-12-20T15:43:47;3.60;99.90
5786;DHT22;2919;48.630;9.000;2023-12-20T15:46:13;3.60;99.90
5786;DHT22;2919;48.630;9.000;2023-12-20T15:48:39;3.60;99.90
5786;DHT22;2919;48.630;9.000;2023-12-20T15:51:05;3.50;99.90
5786;DHT22;2919;48.630;9.000;2023-12-20T15:53:31;3.50;99.90
5786;DHT22;2919;48.630;9.000;2023-12-20T15:55:56;3.50;99.90
5786;DHT22;2919;48.630;9.000;2023-12-20T15:58:22;3.50;99.90
5786;DHT22;2919;48.630;9.000;2023-12-20T16:00:47;3.50;99.90
5786;DHT22;2919;48.630;9.000;2023-12-20T16:03:14;3.50;99.90
5786;DHT22;2919;48.630;9.000;2023-12-20T16:05:39;3.50;99.90
5786;DHT22;2919;48.630;9.000;2023-12-20T16:08:05;3.50;99.90
5786;DHT22;2919;48.630;9.000;2023-12-20T16:10:31;3.50;99.90
5786;DHT22;2919;48.630;9.000;2023-12-20T16:12:56;3.50;99.90
5786;DHT22;2919;48.630;9.000;2023-12-20T16:15:22;3.50;99.90